createdAt,value
2017-10-12T00:00:42.839Z,0.00
2017-10-12T00:01:42.842Z,0.00
2017-10-12T00:02:42.841Z,0.00
2017-10-12T00:03:42.840Z,0.00
2017-10-12T00:04:42.836Z,0.00
2017-10-12T00:05:42.833Z,0.00
2017-10-12T00:06:42.832Z,0.00
2017-10-12T00:07:42.831Z,0.00
2017-10-12T00:08:42.827Z,0.00
2017-10-12T00:09:42.822Z,0.00
2017-10-12T00:10:42.820Z,0.00
2017-10-12T00:11:42.819Z,0.00
2017-10-12T00:12:42.816Z,0.00
2017-10-12T00:13:42.814Z,0.00
2017-10-12T00:14:42.811Z,0.00
2017-10-12T00:15:42.811Z,0.00
2017-10-12T00:16:42.807Z,0.00
2017-10-12T00:17:42.810Z,0.00
2017-10-12T00:18:42.810Z,0.00
2017-10-12T00:19:42.806Z,0.00
2017-10-12T00:20:42.805Z,0.00
2017-10-12T00:21:42.802Z,0.00
2017-10-12T00:22:42.801Z,0.00
2017-10-12T00:23:42.798Z,0.00
2017-10-12T00:24:42.794Z,0.00
2017-10-12T00:25:42.790Z,0.00
2017-10-12T00:26:42.788Z,0.00
2017-10-12T00:27:42.785Z,0.00
2017-10-12T00:28:42.785Z,0.00
2017-10-12T00:29:42.781Z,0.00
2017-10-12T00:30:42.779Z,0.00
2017-10-12T00:31:42.778Z,0.00
2017-10-12T00:32:42.778Z,0.00
2017-10-12T00:33:42.778Z,0.00
2017-10-12T00:34:42.786Z,0.00
2017-10-12T00:35:42.774Z,0.00
2017-10-12T00:36:42.771Z,0.00
2017-10-12T00:37:42.769Z,0.00
2017-10-12T00:38:42.768Z,0.00
2017-10-12T00:39:42.766Z,0.00
2017-10-12T00:40:42.763Z,0.00
2017-10-12T00:41:42.758Z,0.00
2017-10-12T00:42:42.756Z,0.00
2017-10-12T00:43:42.754Z,0.00
2017-10-12T00:44:42.752Z,0.00
2017-10-12T00:45:42.750Z,0.00
2017-10-12T00:46:42.750Z,0.00
2017-10-12T00:47:42.746Z,0.00
2017-10-12T00:48:42.744Z,0.00
2017-10-12T00:49:42.746Z,0.00
2017-10-12T00:50:42.743Z,0.00
2017-10-12T00:51:42.742Z,0.00
2017-10-12T00:52:42.740Z,0.00
2017-10-12T00:53:42.739Z,0.00
2017-10-12T00:54:42.737Z,0.00
2017-10-12T00:55:42.733Z,0.00
2017-10-12T00:56:42.731Z,0.00
2017-10-12T00:57:42.728Z,0.00
2017-10-12T00:58:42.724Z,0.00
2017-10-12T00:59:42.723Z,0.00
2017-10-12T01:00:42.721Z,0.00
2017-10-12T01:01:42.724Z,0.00
2017-10-12T01:02:42.722Z,0.00
2017-10-12T01:03:42.720Z,0.00
2017-10-12T01:04:42.717Z,0.00
2017-10-12T01:05:42.711Z,0.00
2017-10-12T01:06:42.710Z,0.00
2017-10-12T01:07:42.708Z,0.00
2017-10-12T01:08:42.705Z,0.00
2017-10-12T01:09:42.703Z,0.00
2017-10-12T01:10:42.702Z,0.00
2017-10-12T01:11:42.701Z,0.00
2017-10-12T01:12:42.697Z,0.00
2017-10-12T01:13:42.700Z,0.00
2017-10-12T01:14:42.698Z,0.00
2017-10-12T01:15:42.696Z,0.00
2017-10-12T01:16:42.694Z,0.00
2017-10-12T01:17:42.692Z,0.00
2017-10-12T01:18:42.690Z,0.00
2017-10-12T01:19:42.688Z,0.00
2017-10-12T01:20:42.686Z,0.00
2017-10-12T01:21:42.680Z,0.00
2017-10-12T01:22:42.680Z,0.00
2017-10-12T01:23:42.677Z,0.00
2017-10-12T01:24:42.673Z,0.00
2017-10-12T01:25:42.671Z,0.00
2017-10-12T01:26:42.675Z,0.00
2017-10-12T01:27:42.669Z,0.00
2017-10-12T01:28:42.666Z,0.00
2017-10-12T01:29:42.667Z,0.00
2017-10-12T01:30:42.666Z,0.00
2017-10-12T01:31:42.665Z,0.00
2017-10-12T01:32:42.662Z,0.00
2017-10-12T01:33:42.660Z,0.00
2017-10-12T01:34:42.658Z,0.00
2017-10-12T01:35:42.657Z,0.00
2017-10-12T01:36:42.654Z,0.00
2017-10-12T01:37:42.647Z,0.00
2017-10-12T01:38:42.645Z,0.00
2017-10-12T01:39:42.645Z,0.00
2017-10-12T01:40:42.642Z,0.00
2017-10-12T01:41:42.641Z,0.00
2017-10-12T01:42:42.638Z,0.00
2017-10-12T01:43:42.635Z,0.00
2017-10-12T01:44:42.634Z,0.00
2017-10-12T01:45:42.636Z,0.00
2017-10-12T01:46:42.633Z,0.00
2017-10-12T01:47:42.633Z,0.00
2017-10-12T01:48:42.630Z,0.00
2017-10-12T01:49:42.628Z,0.00
2017-10-12T01:50:42.625Z,0.00
2017-10-12T01:51:42.624Z,0.00
2017-10-12T01:52:42.620Z,0.00
2017-10-12T01:53:42.615Z,0.00
2017-10-12T01:54:42.611Z,0.00
2017-10-12T01:55:42.609Z,0.00
2017-10-12T01:56:42.608Z,0.00
2017-10-12T01:57:42.606Z,0.00
2017-10-12T01:58:42.602Z,0.00
2017-10-12T01:59:42.600Z,0.00
2017-10-12T02:00:42.601Z,0.00
2017-10-12T02:01:42.601Z,0.00
2017-10-12T02:02:42.599Z,0.00
2017-10-12T02:03:42.595Z,0.00
2017-10-12T02:04:42.593Z,0.00
2017-10-12T02:05:42.587Z,0.00
2017-10-12T02:06:42.586Z,0.00
2017-10-12T02:07:42.583Z,0.00
2017-10-12T02:08:42.580Z,0.00
2017-10-12T02:09:42.583Z,0.00
2017-10-12T02:10:42.584Z,0.00
2017-10-12T02:11:42.578Z,0.00
2017-10-12T02:12:42.576Z,0.00
2017-10-12T02:13:42.573Z,0.00
2017-10-12T02:14:42.575Z,0.00
2017-10-12T02:15:42.570Z,0.00
2017-10-12T02:16:42.567Z,0.00
2017-10-12T02:17:42.560Z,0.00
2017-10-12T02:18:42.560Z,0.00
2017-10-12T02:19:42.557Z,0.00
2017-10-12T02:20:42.553Z,0.00
2017-10-12T02:21:42.551Z,0.00
2017-10-12T02:22:42.549Z,0.00
2017-10-12T02:23:42.546Z,0.00
2017-10-12T02:24:42.545Z,0.00
2017-10-12T02:25:42.547Z,0.00
2017-10-12T02:26:42.545Z,0.00
2017-10-12T02:27:42.543Z,0.00
2017-10-12T02:28:42.540Z,0.00
2017-10-12T02:29:42.538Z,0.00
2017-10-12T02:30:42.561Z,0.00
2017-10-12T02:31:42.539Z,0.00
2017-10-12T02:32:42.531Z,0.00
2017-10-12T02:33:42.526Z,0.00
2017-10-12T02:34:42.523Z,0.00
2017-10-12T02:35:42.523Z,0.00
2017-10-12T02:36:42.517Z,0.00
2017-10-12T02:37:42.516Z,0.00
2017-10-12T02:38:42.512Z,0.00
2017-10-12T02:39:42.511Z,0.00
2017-10-12T02:40:42.510Z,0.00
2017-10-12T02:41:42.511Z,0.00
2017-10-12T02:42:42.508Z,0.00
2017-10-12T02:43:42.511Z,0.00
2017-10-12T02:44:42.504Z,0.00
2017-10-12T02:45:42.501Z,0.00
2017-10-12T02:46:42.518Z,0.00
2017-10-12T02:47:42.498Z,0.00
2017-10-12T02:48:42.494Z,0.00
2017-10-12T02:49:42.487Z,0.00
2017-10-12T02:50:42.487Z,0.00
2017-10-12T02:51:42.483Z,0.00
2017-10-12T02:52:42.481Z,0.00
2017-10-12T02:53:42.480Z,0.00
2017-10-12T02:54:42.479Z,0.00
2017-10-12T02:55:42.475Z,0.00
2017-10-12T02:56:42.472Z,0.00
2017-10-12T02:57:42.475Z,0.00
2017-10-12T02:58:42.471Z,0.00
2017-10-12T02:59:42.470Z,0.00
2017-10-12T03:00:42.468Z,0.00
2017-10-12T03:01:42.465Z,0.00
2017-10-12T03:02:42.462Z,0.00
2017-10-12T03:03:42.460Z,0.00
2017-10-12T03:04:42.458Z,0.00
2017-10-12T03:05:42.453Z,0.00
2017-10-12T03:06:42.457Z,0.00
2017-10-12T03:07:42.446Z,0.00
2017-10-12T03:08:42.444Z,0.00
2017-10-12T03:09:42.442Z,0.00
2017-10-12T03:10:42.443Z,0.00
2017-10-12T03:11:42.437Z,0.00
2017-10-12T03:12:42.439Z,0.00
2017-10-12T03:13:42.435Z,0.00
2017-10-12T03:14:42.434Z,0.00
2017-10-12T03:15:42.432Z,0.00
2017-10-12T03:16:42.429Z,0.00
2017-10-12T03:17:42.427Z,0.00
2017-10-12T03:18:42.424Z,0.00
2017-10-12T03:19:42.423Z,0.00
2017-10-12T03:20:42.418Z,0.00
2017-10-12T03:21:42.412Z,0.00
2017-10-12T03:22:42.409Z,0.00
2017-10-12T03:23:42.408Z,0.00
2017-10-12T03:24:42.405Z,0.00
2017-10-12T03:25:42.402Z,0.00
2017-10-12T03:26:42.401Z,0.00
2017-10-12T03:27:42.397Z,0.00
2017-10-12T03:28:42.395Z,0.00
2017-10-12T03:29:42.396Z,0.00
2017-10-12T03:30:42.395Z,0.00
2017-10-12T03:31:42.395Z,0.00
2017-10-12T03:32:42.390Z,0.00
2017-10-12T03:33:42.388Z,0.00
2017-10-12T03:34:42.384Z,0.00
2017-10-12T03:35:42.389Z,0.00
2017-10-12T03:36:42.380Z,0.00
2017-10-12T03:37:42.374Z,0.00
2017-10-12T03:38:42.371Z,0.00
2017-10-12T03:39:42.377Z,0.00
2017-10-12T03:40:42.368Z,0.00
2017-10-12T03:41:42.364Z,0.00
2017-10-12T03:42:42.363Z,0.00
2017-10-12T03:43:42.360Z,0.00
2017-10-12T03:44:42.358Z,0.00
2017-10-12T03:45:42.359Z,0.00
2017-10-12T03:46:42.358Z,0.00
2017-10-12T03:47:42.356Z,0.00
2017-10-12T03:48:42.353Z,0.00
2017-10-12T03:49:42.350Z,0.00
2017-10-12T03:50:42.350Z,0.00
2017-10-12T03:51:42.347Z,0.00
2017-10-12T03:52:42.344Z,0.00
2017-10-12T03:53:42.337Z,0.00
2017-10-12T03:54:42.335Z,0.00
2017-10-12T03:55:42.333Z,0.00
2017-10-12T03:56:42.329Z,0.00
2017-10-12T03:57:42.327Z,0.00
2017-10-12T03:58:42.325Z,0.00
2017-10-12T03:59:42.324Z,0.00
2017-10-12T04:00:42.320Z,0.00
2017-10-12T04:01:42.323Z,0.00
2017-10-12T04:02:42.320Z,0.00
2017-10-12T04:03:42.319Z,0.00
2017-10-12T04:04:42.321Z,0.00
2017-10-12T04:05:42.313Z,0.00
2017-10-12T04:06:42.311Z,0.00
2017-10-12T04:07:42.308Z,0.00
2017-10-12T04:08:42.304Z,0.00
2017-10-12T04:09:42.299Z,0.00
2017-10-12T04:10:42.296Z,0.00
2017-10-12T04:11:42.292Z,0.00
2017-10-12T04:12:42.290Z,0.00
2017-10-12T04:13:42.292Z,0.00
2017-10-12T04:14:42.290Z,0.00
2017-10-12T04:15:42.292Z,0.00
2017-10-12T04:16:42.284Z,0.00
2017-10-12T04:17:42.278Z,0.00
2017-10-12T04:18:42.277Z,0.00
2017-10-12T04:19:42.272Z,0.00
2017-10-12T04:20:42.269Z,0.00
2017-10-12T04:21:42.267Z,0.00
2017-10-12T04:22:42.265Z,0.00
2017-10-12T04:23:42.261Z,0.00
2017-10-12T04:24:42.258Z,0.00
2017-10-12T04:25:42.260Z,0.00
2017-10-12T04:26:42.259Z,0.00
2017-10-12T04:27:42.256Z,0.00
2017-10-12T04:28:42.253Z,0.00
2017-10-12T04:29:42.250Z,0.00
2017-10-12T04:30:42.248Z,0.00
2017-10-12T04:31:42.246Z,0.00
2017-10-12T04:32:42.243Z,0.00
2017-10-12T04:33:42.237Z,0.00
2017-10-12T04:34:42.233Z,0.00
2017-10-12T04:35:42.232Z,0.00
2017-10-12T04:36:42.228Z,0.00
2017-10-12T04:37:42.234Z,0.00
2017-10-12T04:38:42.224Z,0.00
2017-10-12T04:39:42.222Z,0.00
2017-10-12T04:40:42.220Z,0.00
2017-10-12T04:41:42.222Z,0.00
2017-10-12T04:42:42.219Z,0.00
2017-10-12T04:43:42.216Z,0.00
2017-10-12T04:44:42.215Z,0.00
2017-10-12T04:45:42.213Z,0.00
2017-10-12T04:46:42.209Z,0.00
2017-10-12T04:47:42.209Z,0.00
2017-10-12T04:48:42.208Z,0.00
2017-10-12T04:49:42.199Z,0.00
2017-10-12T04:50:42.196Z,0.00
2017-10-12T04:51:42.195Z,0.00
2017-10-12T04:52:42.193Z,0.00
2017-10-12T04:53:42.205Z,0.00
2017-10-12T04:54:42.188Z,0.00
2017-10-12T04:55:42.186Z,0.00
2017-10-12T04:56:42.183Z,0.00
2017-10-12T04:57:42.186Z,0.00
2017-10-12T04:58:42.184Z,0.00
2017-10-12T04:59:42.181Z,0.00
2017-10-12T05:00:42.179Z,0.00
2017-10-12T05:01:42.176Z,0.00
2017-10-12T05:02:42.175Z,0.00
2017-10-12T05:03:42.172Z,0.00
2017-10-12T05:04:42.169Z,0.00
2017-10-12T05:05:42.162Z,0.00
2017-10-12T05:06:42.162Z,0.00
2017-10-12T05:07:42.158Z,0.00
2017-10-12T05:08:42.157Z,0.00
2017-10-12T05:09:42.157Z,0.00
2017-10-12T05:10:42.166Z,0.00
2017-10-12T05:11:42.150Z,0.00
2017-10-12T05:12:42.147Z,0.00
2017-10-12T05:13:42.150Z,0.00
2017-10-12T05:14:42.148Z,0.00
2017-10-12T05:15:42.147Z,0.00
2017-10-12T05:16:42.143Z,0.00
2017-10-12T05:17:42.136Z,0.00
2017-10-12T05:18:42.134Z,0.00
2017-10-12T05:19:42.138Z,0.00
2017-10-12T05:20:42.129Z,0.00
2017-10-12T05:21:42.131Z,0.00
2017-10-12T05:22:42.130Z,4.00
2017-10-12T05:23:42.128Z,4.00
2017-10-12T05:24:42.124Z,0.00
2017-10-12T05:25:42.120Z,4.00
2017-10-12T05:26:42.120Z,0.00
2017-10-12T05:27:42.119Z,4.00
2017-10-12T05:28:42.115Z,4.00
2017-10-12T05:29:42.107Z,8.00
2017-10-12T05:30:42.106Z,12.00
2017-10-12T05:31:42.105Z,12.00
2017-10-12T05:32:42.100Z,16.00
2017-10-12T05:33:42.100Z,20.00
2017-10-12T05:34:42.095Z,24.00
2017-10-12T05:35:42.093Z,28.00
2017-10-12T05:36:42.091Z,36.00
2017-10-12T05:37:42.093Z,44.00
2017-10-12T05:38:42.089Z,56.00
2017-10-12T05:39:42.089Z,64.00
2017-10-12T05:40:42.085Z,72.00
2017-10-12T05:41:42.082Z,84.00
2017-10-12T05:42:42.083Z,96.00
2017-10-12T05:43:42.078Z,112.00
2017-10-12T05:44:42.072Z,128.00
2017-10-12T05:45:42.065Z,152.00
2017-10-12T05:46:42.064Z,176.00
2017-10-12T05:47:42.061Z,212.00
2017-10-12T05:48:42.058Z,248.00
2017-10-12T05:49:42.054Z,288.00
2017-10-12T05:50:42.052Z,332.00
2017-10-12T05:51:42.049Z,380.00
2017-10-12T05:52:42.047Z,428.00
2017-10-12T05:53:42.046Z,488.00
2017-10-12T05:54:42.043Z,532.00
2017-10-12T05:55:42.040Z,580.00
2017-10-12T05:56:42.036Z,624.00
2017-10-12T05:57:42.034Z,664.00
2017-10-12T05:58:42.031Z,704.00
2017-10-12T05:59:42.027Z,748.00
2017-10-12T06:00:42.023Z,784.00
2017-10-12T06:01:42.017Z,824.00
2017-10-12T06:02:42.015Z,856.00
2017-10-12T06:03:42.018Z,896.00
2017-10-12T06:04:42.007Z,936.00
2017-10-12T06:05:42.003Z,988.00
2017-10-12T06:06:42.003Z,1056.00
2017-10-12T06:07:41.996Z,1136.00
2017-10-12T06:08:41.994Z,1228.00
2017-10-12T06:09:41.995Z,1320.00
2017-10-12T06:10:41.992Z,1408.00
2017-10-12T06:11:41.989Z,1456.00
2017-10-12T06:12:41.984Z,1488.00
2017-10-12T06:13:41.983Z,1524.00
2017-10-12T06:14:41.979Z,1668.00
2017-10-12T06:15:41.975Z,1908.00
2017-10-12T06:16:41.975Z,2268.00
2017-10-12T06:17:41.965Z,2772.00
2017-10-12T06:18:41.965Z,3140.00
2017-10-12T06:19:41.960Z,3544.00
2017-10-12T06:20:41.956Z,4192.00
2017-10-12T06:21:41.958Z,4552.00
2017-10-12T06:22:41.955Z,4808.00
2017-10-12T06:23:41.953Z,5224.00
2017-10-12T06:24:41.948Z,5756.00
2017-10-12T06:25:41.942Z,5816.00
2017-10-12T06:26:41.938Z,5868.00
2017-10-12T06:27:41.938Z,5568.00
2017-10-12T06:28:41.934Z,4616.00
2017-10-12T06:29:41.931Z,3692.00
2017-10-12T06:30:41.930Z,3280.00
2017-10-12T06:31:41.928Z,2692.00
2017-10-12T06:32:41.927Z,2068.00
2017-10-12T06:33:41.929Z,2032.00
2017-10-12T06:34:41.926Z,2080.00
2017-10-12T06:35:41.929Z,1960.00
2017-10-12T06:36:41.929Z,1988.00
2017-10-12T06:37:41.922Z,2140.00
2017-10-12T06:38:41.920Z,2340.00
2017-10-12T06:39:41.919Z,2488.00
2017-10-12T06:40:41.917Z,2640.00
2017-10-12T06:41:41.910Z,2884.00
2017-10-12T06:42:41.910Z,3168.00
2017-10-12T06:43:41.907Z,3368.00
2017-10-12T06:44:41.904Z,3580.00
2017-10-12T06:45:41.904Z,3832.00
2017-10-12T06:46:41.902Z,4020.00
2017-10-12T06:47:41.901Z,4112.00
2017-10-12T06:48:41.899Z,4120.00
2017-10-12T06:49:41.902Z,4088.00
2017-10-12T06:50:41.899Z,4196.00
2017-10-12T06:51:41.897Z,4608.00
2017-10-12T06:52:41.896Z,4652.00
2017-10-12T06:53:41.895Z,4584.00
2017-10-12T06:54:41.892Z,4672.00
2017-10-12T06:55:41.891Z,4884.00
2017-10-12T06:56:41.888Z,6116.00
2017-10-12T06:57:41.882Z,10480.00
2017-10-12T06:58:41.881Z,15168.00
2017-10-12T06:59:41.885Z,13792.00
2017-10-12T07:00:41.880Z,14208.00
2017-10-12T07:01:41.877Z,13512.00
2017-10-12T07:02:41.876Z,11316.00
2017-10-12T07:03:41.874Z,5368.00
2017-10-12T07:04:41.873Z,4648.00
2017-10-12T07:05:41.876Z,4516.00
2017-10-12T07:06:41.880Z,4612.00
2017-10-12T07:07:41.907Z,4656.00
2017-10-12T07:08:41.874Z,4876.00
2017-10-12T07:09:41.874Z,6304.00
2017-10-12T07:10:41.873Z,6852.00
2017-10-12T07:11:41.876Z,6660.00
2017-10-12T07:12:41.874Z,6848.00
2017-10-12T07:13:41.870Z,7300.00
2017-10-12T07:14:41.871Z,7148.00
2017-10-12T07:15:41.875Z,6860.00
2017-10-12T07:16:41.869Z,6740.00
2017-10-12T07:17:41.871Z,6940.00
2017-10-12T07:18:41.871Z,7916.00
2017-10-12T07:19:41.871Z,7300.00
2017-10-12T07:20:41.871Z,6500.00
2017-10-12T07:21:41.876Z,5892.00
2017-10-12T07:22:41.879Z,5040.00
2017-10-12T07:23:41.877Z,4776.00
2017-10-12T07:24:41.879Z,4772.00
2017-10-12T07:25:41.875Z,4512.00
2017-10-12T07:26:41.880Z,4704.00
2017-10-12T07:27:41.877Z,5028.00
2017-10-12T07:28:41.877Z,5508.00
2017-10-12T07:29:41.884Z,5996.00
2017-10-12T07:30:41.887Z,6400.00
2017-10-12T07:31:41.886Z,6572.00
2017-10-12T07:32:41.886Z,7032.00
2017-10-12T07:33:41.885Z,6996.00
2017-10-12T07:34:41.886Z,7692.00
2017-10-12T07:35:41.889Z,8956.00
2017-10-12T07:36:41.889Z,8728.00
2017-10-12T07:37:41.885Z,9152.00
2017-10-12T07:38:41.886Z,9404.00
2017-10-12T07:39:41.889Z,8268.00
2017-10-12T07:40:41.893Z,9172.00
2017-10-12T07:41:41.889Z,8168.00
2017-10-12T07:42:41.891Z,7676.00
2017-10-12T07:43:41.892Z,7964.00
2017-10-12T07:44:41.894Z,7432.00
2017-10-12T07:45:41.899Z,7796.00
2017-10-12T07:46:41.900Z,8944.00
2017-10-12T07:47:41.901Z,8460.00
2017-10-12T07:48:41.954Z,9216.00
2017-10-12T07:49:41.905Z,7504.00
2017-10-12T07:50:41.907Z,6284.00
2017-10-12T07:51:41.908Z,6600.00
2017-10-12T07:52:41.910Z,7044.00
2017-10-12T07:53:41.906Z,7312.00
2017-10-12T07:54:41.909Z,8760.00
2017-10-12T07:55:41.911Z,7272.00
2017-10-12T07:56:41.913Z,6080.00
2017-10-12T07:57:41.914Z,5516.00
2017-10-12T07:58:41.916Z,6268.00
2017-10-12T07:59:41.923Z,5932.00
2017-10-12T08:00:41.918Z,5400.00
2017-10-12T08:01:41.925Z,6468.00
2017-10-12T08:02:41.928Z,6372.00
2017-10-12T08:03:41.928Z,6156.00
2017-10-12T08:04:41.930Z,5680.00
2017-10-12T08:05:41.932Z,6216.00
2017-10-12T08:06:41.933Z,5760.00
2017-10-12T08:07:41.935Z,6340.00
2017-10-12T08:08:41.991Z,6136.00
2017-10-12T08:09:41.932Z,6688.00
2017-10-12T08:10:41.936Z,8036.00
2017-10-12T08:11:41.936Z,7808.00
2017-10-12T08:12:41.937Z,7528.00
2017-10-12T08:13:41.938Z,7392.00
2017-10-12T08:14:41.940Z,7232.00
2017-10-12T08:15:41.941Z,7060.00
2017-10-12T08:16:41.941Z,7540.00
2017-10-12T08:17:41.947Z,8148.00
2017-10-12T08:18:41.948Z,11800.00
2017-10-12T08:19:41.950Z,10044.00
2017-10-12T08:20:41.950Z,8448.00
2017-10-12T08:21:41.951Z,8140.00
2017-10-12T08:22:41.953Z,8360.00
2017-10-12T08:23:41.953Z,8712.00
2017-10-12T08:24:41.954Z,9960.00
2017-10-12T08:25:41.952Z,9860.00
2017-10-12T08:26:41.960Z,13628.00
2017-10-12T08:27:41.955Z,8888.00
2017-10-12T08:28:41.956Z,10968.00
2017-10-12T08:29:41.960Z,8440.00
2017-10-12T08:30:41.972Z,9088.00
2017-10-12T08:31:41.965Z,9084.00
2017-10-12T08:32:41.965Z,9744.00
2017-10-12T08:33:41.964Z,10008.00
2017-10-12T08:34:41.966Z,10232.00
2017-10-12T08:35:41.966Z,9164.00
2017-10-12T08:36:41.968Z,10832.00
2017-10-12T08:37:41.972Z,9820.00
2017-10-12T08:38:41.973Z,9144.00
2017-10-12T08:39:41.974Z,9572.00
2017-10-12T08:40:41.977Z,9308.00
2017-10-12T08:41:41.982Z,9532.00
2017-10-12T08:42:41.984Z,10568.00
2017-10-12T08:43:41.987Z,11696.00
2017-10-12T08:44:41.987Z,8200.00
2017-10-12T08:45:41.990Z,9800.00
2017-10-12T08:46:41.998Z,10296.00
2017-10-12T08:47:41.996Z,8744.00
2017-10-12T08:48:41.998Z,9416.00
2017-10-12T08:49:41.995Z,9952.00
2017-10-12T08:50:41.999Z,9376.00
2017-10-12T08:51:41.999Z,10540.00
2017-10-12T08:52:42.002Z,13164.00
2017-10-12T08:53:42.004Z,12572.00
2017-10-12T08:54:42.007Z,16512.00
2017-10-12T08:55:42.011Z,20160.00
2017-10-12T08:56:42.012Z,17792.00
2017-10-12T08:57:42.018Z,11192.00
2017-10-12T08:58:42.023Z,25728.00
2017-10-12T08:59:42.025Z,25088.00
2017-10-12T09:00:42.029Z,9364.00
2017-10-12T09:01:42.032Z,9084.00
2017-10-12T09:02:42.035Z,7128.00
2017-10-12T09:03:42.040Z,24960.00
2017-10-12T09:04:42.043Z,14316.00
2017-10-12T09:05:42.044Z,21824.00
2017-10-12T09:06:42.048Z,10700.00
2017-10-12T09:07:42.076Z,10020.00
2017-10-12T09:08:42.058Z,24512.00
2017-10-12T09:09:42.062Z,25920.00
2017-10-12T09:10:42.069Z,24608.00
2017-10-12T09:11:42.072Z,26528.00
2017-10-12T09:12:42.082Z,23648.00
2017-10-12T09:13:42.103Z,10800.00
2017-10-12T09:14:42.094Z,18112.00
2017-10-12T09:15:42.100Z,20576.00
2017-10-12T09:16:42.107Z,14356.00
2017-10-12T09:17:42.113Z,11324.00
2017-10-12T09:18:42.120Z,12152.00
2017-10-12T09:19:42.128Z,22432.00
2017-10-12T09:20:42.134Z,22208.00
2017-10-12T09:21:42.139Z,20608.00
2017-10-12T09:22:42.146Z,23296.00
2017-10-12T09:23:42.161Z,25056.00
2017-10-12T09:24:42.161Z,16288.00
2017-10-12T09:25:42.169Z,8296.00
2017-10-12T09:26:42.178Z,24064.00
2017-10-12T09:27:42.184Z,24000.00
2017-10-12T09:28:42.192Z,23456.00
2017-10-12T09:29:42.205Z,27328.00
2017-10-12T09:30:42.213Z,27296.00
2017-10-12T09:31:42.221Z,24224.00
2017-10-12T09:32:42.230Z,23008.00
2017-10-12T09:33:42.235Z,20928.00
2017-10-12T09:34:42.244Z,24192.00
2017-10-12T09:35:42.255Z,21664.00
2017-10-12T09:36:42.263Z,20672.00
2017-10-12T09:37:42.276Z,19264.00
2017-10-12T09:38:42.289Z,19392.00
2017-10-12T09:39:42.299Z,8148.00
2017-10-12T09:40:42.316Z,6060.00
2017-10-12T09:41:42.320Z,5012.00
2017-10-12T09:42:42.329Z,6000.00
2017-10-12T09:43:42.342Z,6216.00
2017-10-12T09:44:42.350Z,15776.00
2017-10-12T09:45:42.357Z,14056.00
2017-10-12T09:46:42.370Z,10720.00
2017-10-12T09:47:42.395Z,26464.00
2017-10-12T09:48:42.386Z,26368.00
2017-10-12T09:49:42.398Z,27072.00
2017-10-12T09:50:42.405Z,14920.00
2017-10-12T09:51:42.415Z,11264.00
2017-10-12T09:52:42.425Z,14564.00
2017-10-12T09:53:42.438Z,15360.00
2017-10-12T09:54:42.448Z,10480.00
2017-10-12T09:55:42.457Z,17888.00
2017-10-12T09:56:42.465Z,17408.00
2017-10-12T09:57:42.476Z,11968.00
2017-10-12T09:58:42.484Z,8996.00
2017-10-12T09:59:42.494Z,9816.00
2017-10-12T10:00:42.503Z,17344.00
2017-10-12T10:01:42.508Z,12084.00
2017-10-12T10:02:42.515Z,18656.00
2017-10-12T10:03:42.526Z,9312.00
2017-10-12T10:04:42.533Z,9180.00
2017-10-12T10:05:42.541Z,16832.00
2017-10-12T10:06:42.551Z,18656.00
2017-10-12T10:07:42.559Z,11068.00
2017-10-12T10:08:42.566Z,10336.00
2017-10-12T10:09:42.578Z,10616.00
2017-10-12T10:10:42.587Z,15744.00
2017-10-12T10:11:42.594Z,13660.00
2017-10-12T10:12:42.600Z,13372.00
2017-10-12T10:13:42.609Z,12428.00
2017-10-12T10:14:42.615Z,15328.00
2017-10-12T10:15:42.633Z,11516.00
2017-10-12T10:16:42.628Z,11356.00
2017-10-12T10:17:42.631Z,13728.00
2017-10-12T10:18:42.638Z,12628.00
2017-10-12T10:19:42.645Z,13752.00
2017-10-12T10:20:42.654Z,12432.00
2017-10-12T10:21:42.658Z,13092.00
2017-10-12T10:22:42.664Z,13320.00
2017-10-12T10:23:42.672Z,10008.00
2017-10-12T10:24:42.677Z,10340.00
2017-10-12T10:25:42.688Z,9328.00
2017-10-12T10:26:42.695Z,11708.00
2017-10-12T10:27:42.701Z,11276.00
2017-10-12T10:28:42.706Z,10524.00
2017-10-12T10:29:42.713Z,10908.00
2017-10-12T10:30:42.719Z,12932.00
2017-10-12T10:31:42.726Z,13348.00
2017-10-12T10:32:42.732Z,11952.00
2017-10-12T10:33:42.731Z,9384.00
2017-10-12T10:34:42.739Z,9252.00
2017-10-12T10:35:42.745Z,12272.00
2017-10-12T10:36:42.748Z,13196.00
2017-10-12T10:37:42.760Z,11240.00
2017-10-12T10:38:42.763Z,11924.00
2017-10-12T10:39:42.769Z,18208.00
2017-10-12T10:40:42.772Z,8088.00
2017-10-12T10:41:42.773Z,12988.00
2017-10-12T10:42:42.780Z,17344.00
2017-10-12T10:43:42.789Z,12840.00
2017-10-12T10:44:42.790Z,11392.00
2017-10-12T10:45:42.795Z,13864.00
2017-10-12T10:46:42.800Z,19200.00
2017-10-12T10:47:42.806Z,9804.00
2017-10-12T10:48:42.810Z,7524.00
2017-10-12T10:49:42.819Z,6300.00
2017-10-12T10:50:42.825Z,6316.00
2017-10-12T10:51:42.830Z,8928.00
2017-10-12T10:52:42.836Z,16704.00
2017-10-12T10:53:42.840Z,11188.00
2017-10-12T10:54:42.846Z,9260.00
2017-10-12T10:55:42.851Z,15044.00
2017-10-12T10:56:42.855Z,15556.00
2017-10-12T10:57:42.857Z,13884.00
2017-10-12T10:58:42.864Z,21600.00
2017-10-12T10:59:42.868Z,20512.00
2017-10-12T11:00:42.872Z,21440.00
2017-10-12T11:01:42.878Z,20416.00
2017-10-12T11:02:42.885Z,19648.00
2017-10-12T11:03:42.891Z,17152.00
2017-10-12T11:04:42.899Z,12012.00
2017-10-12T11:05:42.905Z,10640.00
2017-10-12T11:06:42.912Z,12348.00
2017-10-12T11:07:42.920Z,14076.00
2017-10-12T11:08:42.930Z,21440.00
2017-10-12T11:09:42.931Z,18688.00
2017-10-12T11:10:42.941Z,16544.00
2017-10-12T11:11:42.945Z,14736.00
2017-10-12T11:12:42.952Z,11104.00
2017-10-12T11:13:42.956Z,10276.00
2017-10-12T11:14:42.960Z,10460.00
2017-10-12T11:15:42.967Z,8748.00
2017-10-12T11:16:42.974Z,9068.00
2017-10-12T11:17:42.985Z,8184.00
2017-10-12T11:18:42.995Z,8124.00
2017-10-12T11:19:42.993Z,7600.00
2017-10-12T11:20:42.999Z,9264.00
2017-10-12T11:21:43.009Z,10340.00
2017-10-12T11:22:43.016Z,10308.00
2017-10-12T11:23:43.023Z,10116.00
2017-10-12T11:24:43.034Z,10996.00
2017-10-12T11:25:43.034Z,8580.00
2017-10-12T11:26:43.037Z,8728.00
2017-10-12T11:27:43.044Z,10164.00
2017-10-12T11:28:43.049Z,11156.00
2017-10-12T11:29:43.049Z,11688.00
2017-10-12T11:30:43.056Z,10320.00
2017-10-12T11:31:43.061Z,9088.00
2017-10-12T11:32:43.066Z,10540.00
2017-10-12T11:33:43.070Z,11188.00
2017-10-12T11:34:43.074Z,10604.00
2017-10-12T11:35:43.080Z,10836.00
2017-10-12T11:36:43.082Z,11220.00
2017-10-12T11:37:43.092Z,8980.00
2017-10-12T11:38:43.097Z,8728.00
2017-10-12T11:39:43.103Z,7708.00
2017-10-12T11:40:43.105Z,9712.00
2017-10-12T11:41:43.113Z,10608.00
2017-10-12T11:42:43.116Z,10360.00
2017-10-12T11:43:43.121Z,10176.00
2017-10-12T11:44:43.123Z,10136.00
2017-10-12T11:45:43.126Z,9952.00
2017-10-12T11:46:43.133Z,9976.00
2017-10-12T11:47:43.133Z,8876.00
2017-10-12T11:48:43.135Z,10044.00
2017-10-12T11:49:43.139Z,9452.00
2017-10-12T11:50:43.142Z,7552.00
2017-10-12T11:51:43.161Z,7976.00
2017-10-12T11:52:43.152Z,8968.00
2017-10-12T11:53:43.159Z,8464.00
2017-10-12T11:54:43.162Z,7876.00
2017-10-12T11:55:43.166Z,7428.00
2017-10-12T11:56:43.172Z,7964.00
2017-10-12T11:57:43.174Z,7988.00
2017-10-12T11:58:43.178Z,8052.00
2017-10-12T11:59:43.181Z,7884.00
2017-10-12T12:00:43.195Z,8276.00
2017-10-12T12:01:43.185Z,8888.00
2017-10-12T12:02:43.188Z,8872.00
2017-10-12T12:03:43.193Z,9280.00
2017-10-12T12:04:43.194Z,9436.00
2017-10-12T12:05:43.197Z,8544.00
2017-10-12T12:06:43.203Z,8408.00
2017-10-12T12:07:43.206Z,8928.00
2017-10-12T12:08:43.209Z,8748.00
2017-10-12T12:09:43.216Z,8720.00
2017-10-12T12:10:43.221Z,9148.00
2017-10-12T12:11:43.225Z,8336.00
2017-10-12T12:12:43.226Z,7816.00
2017-10-12T12:13:43.229Z,8628.00
2017-10-12T12:14:43.237Z,7624.00
2017-10-12T12:15:43.237Z,7588.00
2017-10-12T12:16:43.241Z,7612.00
2017-10-12T12:17:43.246Z,7532.00
2017-10-12T12:18:43.244Z,7268.00
2017-10-12T12:19:43.247Z,7644.00
2017-10-12T12:20:43.248Z,8520.00
2017-10-12T12:21:43.258Z,8932.00
2017-10-12T12:22:43.257Z,8968.00
2017-10-12T12:23:43.259Z,8880.00
2017-10-12T12:24:43.262Z,8320.00
2017-10-12T12:25:43.268Z,8412.00
2017-10-12T12:26:43.271Z,7864.00
2017-10-12T12:27:43.275Z,7396.00
2017-10-12T12:28:43.278Z,7284.00
2017-10-12T12:29:43.280Z,7152.00
2017-10-12T12:30:43.283Z,6960.00
2017-10-12T12:31:43.287Z,6896.00
2017-10-12T12:32:43.290Z,7020.00